sensor_id;sensor_type;location;lat;lon;timestamp;pressure;altitude;pressure_sealevel;temperature;humidity
9538;BME280;4807;48.024;11.726;2023-08-21T00:00:22;95489.38;;;18.99;78.27
9538;BME280;4807;48.024;11.726;2023-08-21T00:03:30;95486.56;;;18.94;78.31
9538;BME280;4807;48.024;11.726;2023-08-21T00:06:40;95496.19;;;18.90;78.06
9538;BME280;4807;48.024;11.726;2023-08-21T00:09:48;95494.47;;;18.84;78.82
9538;BME280;4807;48.024;11.726;2023-08-21T00:12:57;95492.25;;;18.81;78.13
9538;BME280;4807;48.024;11.726;2023-08-21T00:16:05;95500.13;;;18.71;78.69
9538;BME280;4807;48.024;11.726;2023-08-21T00:19:13;95493.31;;;18.68;78.75
9538;BME280;4807;48.024;11.726;2023-08-21T00:22:23;95496.41;;;18.60;79.23
9538;BME280;4807;48.024;11.726;2023-08-21T00:25:31;95493.38;;;18.56;79.60
9538;BME280;4807;48.024;11.726;2023-08-21T00:28:39;95488.31;;;18.60;79.25
9538;BME280;4807;48.024;11.726;2023-08-21T00:31:48;95485.72;;;18.53;79.56
9538;BME280;4807;48.024;11.726;2023-08-21T00:34:56;95483.72;;;18.49;80.04
9538;BME280;4807;48.024;11.726;2023-08-21T00:38:05;95477.38;;;18.43;79.72
9538;BME280;4807;48.024;11.726;2023-08-21T00:41:14;95486.53;;;18.42;80.09
9538;BME280;4807;48.024;11.726;2023-08-21T00:44:22;95482.09;;;18.36;80.02
9538;BME280;4807;48.024;11.726;2023-08-21T00:47:30;95476.09;;;18.34;80.55
9538;BME280;4807;48.024;11.726;2023-08-21T00:50:40;95480.94;;;18.32;80.32
9538;BME280;4807;48.024;11.726;2023-08-21T00:53:50;95478.34;;;18.37;79.95
9538;BME280;4807;48.024;11.726;2023-08-21T00:56:59;95473.06;;;18.42;79.58
9538;BME280;4807;48.024;11.726;2023-08-21T01:00:09;95472.59;;;18.34;80.19
9538;BME280;4807;48.024;11.726;2023-08-21T01:03:18;95479.66;;;18.23;79.87
9538;BME280;4807;48.024;11.726;2023-08-21T01:06:27;95468.19;;;18.16;79.92
9538;BME280;4807;48.024;11.726;2023-08-21T01:09:46;95462.88;;;18.21;80.26
9538;BME280;4807;48.024;11.726;2023-08-21T01:13:03;95467.34;;;18.27;80.58
9538;BME280;4807;48.024;11.726;2023-08-21T01:16:16;95474.25;;;18.23;80.86
9538;BME280;4807;48.024;11.726;2023-08-21T01:19:32;95468.63;;;18.24;80.60
9538;BME280;4807;48.024;11.726;2023-08-21T01:22:44;95474.00;;;18.24;80.72
9538;BME280;4807;48.024;11.726;2023-08-21T01:25:54;95476.69;;;18.24;81.08
9538;BME280;4807;48.024;11.726;2023-08-21T01:29:02;95472.94;;;18.25;81.10
9538;BME280;4807;48.024;11.726;2023-08-21T01:32:21;95479.41;;;18.24;80.55
9538;BME280;4807;48.024;11.726;2023-08-21T01:35:33;95471.31;;;18.24;80.63
9538;BME280;4807;48.024;11.726;2023-08-21T01:38:45;95471.22;;;18.19;80.86
9538;BME280;4807;48.024;11.726;2023-08-21T01:41:57;95470.28;;;18.14;81.33
9538;BME280;4807;48.024;11.726;2023-08-21T01:45:07;95475.09;;;18.23;80.49
9538;BME280;4807;48.024;11.726;2023-08-21T01:48:16;95466.75;;;18.25;80.35
9538;BME280;4807;48.024;11.726;2023-08-21T01:51:24;95465.34;;;18.22;80.78
9538;BME280;4807;48.024;11.726;2023-08-21T01:54:32;95470.75;;;18.22;80.58
9538;BME280;4807;48.024;11.726;2023-08-21T01:57:42;95467.69;;;18.19;80.46
9538;BME280;4807;48.024;11.726;2023-08-21T02:00:51;95460.09;;;18.16;80.67
9538;BME280;4807;48.024;11.726;2023-08-21T02:04:00;95461.38;;;18.13;80.57
9538;BME280;4807;48.024;11.726;2023-08-21T02:07:08;95463.03;;;18.14;80.48
9538;BME280;4807;48.024;11.726;2023-08-21T02:10:16;95462.19;;;18.14;80.65
9538;BME280;4807;48.024;11.726;2023-08-21T02:13:26;95465.94;;;18.13;80.27
9538;BME280;4807;48.024;11.726;2023-08-21T02:16:34;95457.97;;;18.18;80.24
9538;BME280;4807;48.024;11.726;2023-08-21T02:19:43;95465.47;;;18.16;80.08
9538;BME280;4807;48.024;11.726;2023-08-21T02:22:53;95462.88;;;18.21;79.96
9538;BME280;4807;48.024;11.726;2023-08-21T02:26:01;95467.00;;;18.23;79.63
9538;BME280;4807;48.024;11.726;2023-08-21T02:29:11;95468.41;;;18.14;79.57
9538;BME280;4807;48.024;11.726;2023-08-21T02:32:19;95477.06;;;18.05;80.49
9538;BME280;4807;48.024;11.726;2023-08-21T02:35:28;95474.84;;;18.02;80.27
9538;BME280;4807;48.024;11.726;2023-08-21T02:38:36;95469.13;;;17.98;80.41
9538;BME280;4807;48.024;11.726;2023-08-21T02:41:44;95460.06;;;17.92;80.47
9538;BME280;4807;48.024;11.726;2023-08-21T02:44:54;95467.59;;;17.90;80.60
9538;BME280;4807;48.024;11.726;2023-08-21T02:48:05;95470.16;;;17.85;80.75
9538;BME280;4807;48.024;11.726;2023-08-21T02:51:13;95469.00;;;18.05;78.65
9538;BME280;4807;48.024;11.726;2023-08-21T02:54:22;95469.81;;;17.82;79.25
9538;BME280;4807;48.024;11.726;2023-08-21T02:57:31;95465.03;;;17.54;80.12
9538;BME280;4807;48.024;11.726;2023-08-21T03:00:40;95476.25;;;17.39;81.46
9538;BME280;4807;48.024;11.726;2023-08-21T03:03:49;95483.59;;;17.32;82.64
9538;BME280;4807;48.024;11.726;2023-08-21T03:06:57;95485.91;;;17.29;82.47
9538;BME280;4807;48.024;11.726;2023-08-21T03:10:06;95479.88;;;17.33;83.18
9538;BME280;4807;48.024;11.726;2023-08-21T03:13:15;95482.19;;;17.30;82.95
9538;BME280;4807;48.024;11.726;2023-08-21T03:16:28;95479.03;;;17.33;83.16
9538;BME280;4807;48.024;11.726;2023-08-21T03:19:36;95488.03;;;17.27;83.46
9538;BME280;4807;48.024;11.726;2023-08-21T03:22:44;95488.81;;;17.15;83.98
9538;BME280;4807;48.024;11.726;2023-08-21T03:25:53;95486.56;;;17.12;83.99
9538;BME280;4807;48.024;11.726;2023-08-21T03:29:01;95486.78;;;17.11;84.18
9538;BME280;4807;48.024;11.726;2023-08-21T03:32:12;95482.09;;;17.06;84.57
9538;BME280;4807;48.024;11.726;2023-08-21T03:35:21;95480.94;;;17.02;84.30
9538;BME280;4807;48.024;11.726;2023-08-21T03:38:29;95488.84;;;16.97;84.72
9538;BME280;4807;48.024;11.726;2023-08-21T03:41:37;95489.06;;;16.96;85.04
9538;BME280;4807;48.024;11.726;2023-08-21T03:44:46;95491.19;;;16.94;84.99
9538;BME280;4807;48.024;11.726;2023-08-21T03:47:58;95498.78;;;16.97;84.52
9538;BME280;4807;48.024;11.726;2023-08-21T03:51:07;95500.88;;;16.95;84.80
9538;BME280;4807;48.024;11.726;2023-08-21T03:54:16;95500.53;;;16.91;84.91
9538;BME280;4807;48.024;11.726;2023-08-21T03:57:24;95510.91;;;16.88;85.12
9538;BME280;4807;48.024;11.726;2023-08-21T04:00:32;95503.53;;;16.83;85.40
9538;BME280;4807;48.024;11.726;2023-08-21T04:03:42;95512.25;;;16.78;85.18
9538;BME280;4807;48.024;11.726;2023-08-21T04:06:51;95520.91;;;16.81;85.48
9538;BME280;4807;48.024;11.726;2023-08-21T04:10:00;95520.09;;;16.80;85.37
9538;BME280;4807;48.024;11.726;2023-08-21T04:13:08;95525.78;;;16.72;85.31
9538;BME280;4807;48.024;11.726;2023-08-21T04:16:16;95515.53;;;16.81;84.52
9538;BME280;4807;48.024;11.726;2023-08-21T04:19:27;95517.28;;;16.75;84.72
9538;BME280;4807;48.024;11.726;2023-08-21T04:22:39;95530.81;;;16.68;84.56
9538;BME280;4807;48.024;11.726;2023-08-21T04:25:48;95526.78;;;16.77;84.37
9538;BME280;4807;48.024;11.726;2023-08-21T04:28:56;95531.03;;;16.67;83.56
9538;BME280;4807;48.024;11.726;2023-08-21T04:32:05;95526.94;;;16.58;83.42
9538;BME280;4807;48.024;11.726;2023-08-21T04:35:15;95532.19;;;16.53;83.25
9538;BME280;4807;48.024;11.726;2023-08-21T04:38:24;95525.38;;;16.50;83.62
9538;BME280;4807;48.024;11.726;2023-08-21T04:41:32;95531.59;;;16.51;83.58
9538;BME280;4807;48.024;11.726;2023-08-21T04:44:40;95528.28;;;16.49;83.54
9538;BME280;4807;48.024;11.726;2023-08-21T04:47:50;95535.63;;;16.60;83.57
9538;BME280;4807;48.024;11.726;2023-08-21T04:51:00;95536.75;;;16.70;84.09
9538;BME280;4807;48.024;11.726;2023-08-21T04:54:08;95533.75;;;16.78;82.53
9538;BME280;4807;48.024;11.726;2023-08-21T04:57:18;95529.22;;;16.79;82.90
9538;BME280;4807;48.024;11.726;2023-08-21T05:00:28;95526.22;;;16.87;83.52
9538;BME280;4807;48.024;11.726;2023-08-21T05:03:36;95531.28;;;16.95;83.99
9538;BME280;4807;48.024;11.726;2023-08-21T05:06:46;95532.78;;;17.09;83.82
9538;BME280;4807;48.024;11.726;2023-08-21T05:09:59;95535.50;;;17.21;83.58
9538;BME280;4807;48.024;11.726;2023-08-21T05:13:10;95545.28;;;17.34;83.48
9538;BME280;4807;48.024;11.726;2023-08-21T05:16:18;95547.19;;;17.45;82.89
9538;BME280;4807;48.024;11.726;2023-08-21T05:19:27;95547.69;;;17.53;82.89
9538;BME280;4807;48.024;11.726;2023-08-21T05:22:37;95555.75;;;17.72;81.80
9538;BME280;4807;48.024;11.726;2023-08-21T05:25:48;95560.41;;;17.76;81.53
9538;BME280;4807;48.024;11.726;2023-08-21T05:28:57;95562.56;;;17.86;80.98
9538;BME280;4807;48.024;11.726;2023-08-21T05:32:05;95547.47;;;17.97;80.91
9538;BME280;4807;48.024;11.726;2023-08-21T05:35:15;95550.66;;;18.05;80.35
9538;BME280;4807;48.024;11.726;2023-08-21T05:38:24;95554.44;;;18.16;79.82
9538;BME280;4807;48.024;11.726;2023-08-21T05:41:33;95551.94;;;18.26;79.81
9538;BME280;4807;48.024;11.726;2023-08-21T05:44:41;95557.22;;;18.44;79.66
9538;BME280;4807;48.024;11.726;2023-08-21T05:47:50;95553.25;;;18.58;78.58
9538;BME280;4807;48.024;11.726;2023-08-21T05:50:59;95553.34;;;18.75;78.37
9538;BME280;4807;48.024;11.726;2023-08-21T05:54:08;95551.94;;;18.96;77.95
9538;BME280;4807;48.024;11.726;2023-08-21T05:57:19;95553.38;;;19.15;76.82
9538;BME280;4807;48.024;11.726;2023-08-21T06:00:27;95552.88;;;19.30;76.82
9538;BME280;4807;48.024;11.726;2023-08-21T06:03:39;95557.06;;;19.49;75.64
9538;BME280;4807;48.024;11.726;2023-08-21T06:07:04;95554.47;;;19.71;75.68
9538;BME280;4807;48.024;11.726;2023-08-21T06:10:13;95553.88;;;20.31;74.13
9538;BME280;4807;48.024;11.726;2023-08-21T06:13:22;95558.78;;;22.72;67.25
9538;BME280;4807;48.024;11.726;2023-08-21T06:16:33;95563.19;;;24.94;58.77
9538;BME280;4807;48.024;11.726;2023-08-21T06:19:41;95563.66;;;26.64;53.10
9538;BME280;4807;48.024;11.726;2023-08-21T06:22:50;95562.25;;;28.09;48.65
9538;BME280;4807;48.024;11.726;2023-08-21T06:25:59;95553.84;;;27.87;47.14
9538;BME280;4807;48.024;11.726;2023-08-21T06:29:08;95556.66;;;29.30;43.13
9538;BME280;4807;48.024;11.726;2023-08-21T06:32:17;95547.59;;;30.12;41.58
9538;BME280;4807;48.024;11.726;2023-08-21T06:35:27;95549.44;;;30.39;41.68
9538;BME280;4807;48.024;11.726;2023-08-21T06:38:35;95549.66;;;30.64;40.21
9538;BME280;4807;48.024;11.726;2023-08-21T06:41:45;95544.00;;;31.62;38.15
9538;BME280;4807;48.024;11.726;2023-08-21T06:44:58;95547.09;;;31.21;38.24
9538;BME280;4807;48.024;11.726;2023-08-21T06:48:06;95556.34;;;31.03;38.90
9538;BME280;4807;48.024;11.726;2023-08-21T06:51:15;95548.06;;;29.37;40.85
9538;BME280;4807;48.024;11.726;2023-08-21T06:54:24;95556.47;;;29.13;42.44
9538;BME280;4807;48.024;11.726;2023-08-21T06:57:33;95554.66;;;30.26;40.86
9538;BME280;4807;48.024;11.726;2023-08-21T07:00:42;95557.69;;;31.93;36.96
9538;BME280;4807;48.024;11.726;2023-08-21T07:03:50;95559.53;;;32.58;37.23
9538;BME280;4807;48.024;11.726;2023-08-21T07:06:58;95561.91;;;31.99;36.74
9538;BME280;4807;48.024;11.726;2023-08-21T07:10:08;95562.13;;;32.20;36.07
9538;BME280;4807;48.024;11.726;2023-08-21T07:13:18;95554.44;;;31.43;37.45
9538;BME280;4807;48.024;11.726;2023-08-21T07:16:27;95564.25;;;32.49;36.49
9538;BME280;4807;48.024;11.726;2023-08-21T07:19:35;95563.38;;;32.05;36.70
9538;BME280;4807;48.024;11.726;2023-08-21T07:22:44;95569.00;;;33.67;35.02
9538;BME280;4807;48.024;11.726;2023-08-21T07:25:52;95568.13;;;33.00;34.84
9538;BME280;4807;48.024;11.726;2023-08-21T07:29:02;95567.00;;;32.23;36.77
9538;BME280;4807;48.024;11.726;2023-08-21T07:32:11;95567.13;;;32.95;35.34
9538;BME280;4807;48.024;11.726;2023-08-21T07:35:20;95564.56;;;32.90;34.96
9538;BME280;4807;48.024;11.726;2023-08-21T07:38:28;95560.50;;;32.79;35.00
9538;BME280;4807;48.024;11.726;2023-08-21T07:41:37;95563.88;;;32.93;34.74
9538;BME280;4807;48.024;11.726;2023-08-21T07:44:47;95557.94;;;33.38;34.25
9538;BME280;4807;48.024;11.726;2023-08-21T07:47:55;95565.50;;;33.50;34.01
9538;BME280;4807;48.024;11.726;2023-08-21T07:51:20;95563.47;;;33.38;34.39
9538;BME280;4807;48.024;11.726;2023-08-21T07:54:28;95561.38;;;33.18;34.16
9538;BME280;4807;48.024;11.726;2023-08-21T07:57:36;95562.81;;;33.79;33.42
9538;BME280;4807;48.024;11.726;2023-08-21T08:00:46;95555.56;;;33.57;34.24
9538;BME280;4807;48.024;11.726;2023-08-21T08:03:55;95561.97;;;32.16;36.57
9538;BME280;4807;48.024;11.726;2023-08-21T08:07:04;95558.25;;;32.38;35.88
9538;BME280;4807;48.024;11.726;2023-08-21T08:10:12;95568.44;;;32.20;36.17
9538;BME280;4807;48.024;11.726;2023-08-21T08:13:20;95560.81;;;32.95;35.26
9538;BME280;4807;48.024;11.726;2023-08-21T08:16:30;95558.94;;;33.16;36.37
9538;BME280;4807;48.024;11.726;2023-08-21T08:19:38;95556.88;;;33.60;35.00
9538;BME280;4807;48.024;11.726;2023-08-21T08:22:47;95558.72;;;34.35;33.75
9538;BME280;4807;48.024;11.726;2023-08-21T08:25:55;95567.63;;;34.41;33.45
9538;BME280;4807;48.024;11.726;2023-08-21T08:29:04;95564.94;;;33.74;34.39
9538;BME280;4807;48.024;11.726;2023-08-21T08:32:14;95563.09;;;33.48;33.29
9538;BME280;4807;48.024;11.726;2023-08-21T08:35:22;95560.72;;;31.74;36.55
9538;BME280;4807;48.024;11.726;2023-08-21T08:38:31;95563.28;;;31.62;37.29
9538;BME280;4807;48.024;11.726;2023-08-21T08:41:49;95555.31;;;32.69;34.97
9538;BME280;4807;48.024;11.726;2023-08-21T08:45:02;95566.00;;;32.19;36.12
9538;BME280;4807;48.024;11.726;2023-08-21T08:48:13;95566.41;;;31.87;36.86
9538;BME280;4807;48.024;11.726;2023-08-21T08:51:22;95568.94;;;30.51;38.64
9538;BME280;4807;48.024;11.726;2023-08-21T08:54:32;95562.72;;;30.45;38.38
9538;BME280;4807;48.024;11.726;2023-08-21T08:57:42;95566.72;;;29.21;40.69
9538;BME280;4807;48.024;11.726;2023-08-21T09:00:50;95567.16;;;29.96;41.54
9538;BME280;4807;48.024;11.726;2023-08-21T09:04:00;95570.50;;;30.88;38.76
9538;BME280;4807;48.024;11.726;2023-08-21T09:07:11;95558.13;;;30.77;39.38
9538;BME280;4807;48.024;11.726;2023-08-21T09:10:19;95564.16;;;31.40;38.54
9538;BME280;4807;48.024;11.726;2023-08-21T09:13:28;95558.16;;;31.07;39.47
9538;BME280;4807;48.024;11.726;2023-08-21T09:16:36;95560.41;;;30.03;39.27
9538;BME280;4807;48.024;11.726;2023-08-21T09:19:46;95562.25;;;30.65;39.69
9538;BME280;4807;48.024;11.726;2023-08-21T09:22:54;95556.66;;;29.85;39.43
9538;BME280;4807;48.024;11.726;2023-08-21T09:26:03;95563.28;;;29.98;39.64
9538;BME280;4807;48.024;11.726;2023-08-21T09:29:11;95560.94;;;30.85;38.60
9538;BME280;4807;48.024;11.726;2023-08-21T09:32:20;95556.84;;;31.05;34.64
9538;BME280;4807;48.024;11.726;2023-08-21T09:35:33;95554.84;;;30.30;35.58
9538;BME280;4807;48.024;11.726;2023-08-21T09:38:46;95556.19;;;30.19;35.04
9538;BME280;4807;48.024;11.726;2023-08-21T09:41:56;95556.81;;;30.52;35.93
9538;BME280;4807;48.024;11.726;2023-08-21T09:45:06;95548.84;;;31.17;34.41
9538;BME280;4807;48.024;11.726;2023-08-21T09:48:16;95543.25;;;30.78;34.58
9538;BME280;4807;48.024;11.726;2023-08-21T09:51:27;95546.69;;;31.45;35.30
9538;BME280;4807;48.024;11.726;2023-08-21T09:54:36;95543.16;;;30.91;33.42
9538;BME280;4807;48.024;11.726;2023-08-21T09:57:45;95546.03;;;30.55;35.51
9538;BME280;4807;48.024;11.726;2023-08-21T10:00:59;95539.19;;;31.06;35.88
9538;BME280;4807;48.024;11.726;2023-08-21T10:04:09;95537.31;;;31.55;35.70
9538;BME280;4807;48.024;11.726;2023-08-21T10:07:24;95534.50;;;31.77;34.70
9538;BME280;4807;48.024;11.726;2023-08-21T10:10:37;95536.75;;;30.73;33.31
9538;BME280;4807;48.024;11.726;2023-08-21T10:13:46;95537.34;;;30.62;34.06
9538;BME280;4807;48.024;11.726;2023-08-21T10:16:56;95522.88;;;31.40;33.24
9538;BME280;4807;48.024;11.726;2023-08-21T10:20:07;95522.44;;;31.16;33.73
9538;BME280;4807;48.024;11.726;2023-08-21T10:23:29;95522.72;;;31.37;32.43
9538;BME280;4807;48.024;11.726;2023-08-21T10:26:38;95520.97;;;31.10;30.43
9538;BME280;4807;48.024;11.726;2023-08-21T10:29:57;95526.28;;;31.06;31.35
9538;BME280;4807;48.024;11.726;2023-08-21T10:33:05;95524.56;;;31.19;31.88
9538;BME280;4807;48.024;11.726;2023-08-21T10:36:14;95519.91;;;31.28;32.17
9538;BME280;4807;48.024;11.726;2023-08-21T10:39:27;95518.97;;;31.41;30.41
9538;BME280;4807;48.024;11.726;2023-08-21T10:42:39;95519.94;;;31.06;30.92
9538;BME280;4807;48.024;11.726;2023-08-21T10:45:54;95519.91;;;31.28;31.67
9538;BME280;4807;48.024;11.726;2023-08-21T10:49:03;95522.66;;;31.68;31.15
9538;BME280;4807;48.024;11.726;2023-08-21T10:52:11;95523.09;;;31.13;32.09
9538;BME280;4807;48.024;11.726;2023-08-21T10:55:22;95517.63;;;31.30;31.69
9538;BME280;4807;48.024;11.726;2023-08-21T10:58:35;95516.84;;;31.87;31.64
9538;BME280;4807;48.024;11.726;2023-08-21T11:01:46;95512.47;;;31.77;30.22
9538;BME280;4807;48.024;11.726;2023-08-21T11:04:57;95518.78;;;31.69;31.85
9538;BME280;4807;48.024;11.726;2023-08-21T11:08:06;95517.00;;;31.81;30.15
9538;BME280;4807;48.024;11.726;2023-08-21T11:11:17;95515.53;;;31.67;30.43
9538;BME280;4807;48.024;11.726;2023-08-21T11:14:26;95516.06;;;31.46;30.63
9538;BME280;4807;48.024;11.726;2023-08-21T11:17:34;95514.25;;;31.81;31.71
9538;BME280;4807;48.024;11.726;2023-08-21T11:20:43;95510.53;;;32.12;31.04
9538;BME280;4807;48.024;11.726;2023-08-21T11:23:52;95520.47;;;32.21;29.46
9538;BME280;4807;48.024;11.726;2023-08-21T11:27:02;95512.97;;;32.13;30.10
9538;BME280;4807;48.024;11.726;2023-08-21T11:30:12;95513.31;;;32.38;31.26
9538;BME280;4807;48.024;11.726;2023-08-21T11:33:20;95509.09;;;32.14;30.10
9538;BME280;4807;48.024;11.726;2023-08-21T11:36:29;95514.44;;;31.94;31.19
9538;BME280;4807;48.024;11.726;2023-08-21T11:39:47;95507.31;;;32.36;29.96
9538;BME280;4807;48.024;11.726;2023-08-21T11:43:02;95506.06;;;32.16;29.72
9538;BME280;4807;48.024;11.726;2023-08-21T11:46:11;95507.47;;;32.13;30.75
9538;BME280;4807;48.024;11.726;2023-08-21T11:49:20;95509.31;;;32.18;29.37
9538;BME280;4807;48.024;11.726;2023-08-21T11:52:31;95506.34;;;32.49;30.65
9538;BME280;4807;48.024;11.726;2023-08-21T11:55:39;95512.03;;;32.70;30.03
9538;BME280;4807;48.024;11.726;2023-08-21T11:58:49;95509.53;;;32.85;29.17
9538;BME280;4807;48.024;11.726;2023-08-21T12:01:57;95498.69;;;32.80;28.66
9538;BME280;4807;48.024;11.726;2023-08-21T12:05:13;95496.91;;;32.76;29.57
9538;BME280;4807;48.024;11.726;2023-08-21T12:08:22;95507.31;;;32.70;30.74
9538;BME280;4807;48.024;11.726;2023-08-21T12:11:31;95494.50;;;32.57;31.33
9538;BME280;4807;48.024;11.726;2023-08-21T12:14:40;95491.25;;;32.72;30.65
9538;BME280;4807;48.024;11.726;2023-08-21T12:17:49;95492.53;;;32.83;29.54
9538;BME280;4807;48.024;11.726;2023-08-21T12:20:57;95486.38;;;32.69;31.87
9538;BME280;4807;48.024;11.726;2023-08-21T12:24:06;95480.38;;;32.67;31.94
9538;BME280;4807;48.024;11.726;2023-08-21T12:27:14;95485.22;;;32.79;31.58
9538;BME280;4807;48.024;11.726;2023-08-21T12:30:25;95476.00;;;32.66;31.42
9538;BME280;4807;48.024;11.726;2023-08-21T12:33:33;95481.81;;;32.90;30.98
9538;BME280;4807;48.024;11.726;2023-08-21T12:36:42;95479.16;;;33.03;31.57
9538;BME280;4807;48.024;11.726;2023-08-21T12:39:50;95480.56;;;33.09;31.31
9538;BME280;4807;48.024;11.726;2023-08-21T12:42:58;95473.75;;;33.15;29.49
9538;BME280;4807;48.024;11.726;2023-08-21T12:46:08;95473.72;;;32.59;29.75
9538;BME280;4807;48.024;11.726;2023-08-21T12:49:17;95472.75;;;32.64;31.00
9538;BME280;4807;48.024;11.726;2023-08-21T12:52:26;95464.41;;;32.35;29.76
9538;BME280;4807;48.024;11.726;2023-08-21T12:55:34;95468.72;;;32.53;30.14
9538;BME280;4807;48.024;11.726;2023-08-21T12:58:42;95465.66;;;32.11;29.91
9538;BME280;4807;48.024;11.726;2023-08-21T13:01:52;95457.56;;;32.41;30.51
9538;BME280;4807;48.024;11.726;2023-08-21T13:05:00;95458.16;;;32.72;29.44
9538;BME280;4807;48.024;11.726;2023-08-21T13:08:09;95454.81;;;32.41;30.97
9538;BME280;4807;48.024;11.726;2023-08-21T13:11:17;95453.47;;;32.55;31.02
9538;BME280;4807;48.024;11.726;2023-08-21T13:14:26;95454.50;;;32.16;30.58
9538;BME280;4807;48.024;11.726;2023-08-21T13:17:40;95449.00;;;32.34;30.91
9538;BME280;4807;48.024;11.726;2023-08-21T13:20:49;95456.56;;;32.54;29.46
9538;BME280;4807;48.024;11.726;2023-08-21T13:23:57;95451.38;;;32.52;31.35
9538;BME280;4807;48.024;11.726;2023-08-21T13:27:09;95447.31;;;32.58;30.35
9538;BME280;4807;48.024;11.726;2023-08-21T13:30:17;95444.31;;;32.89;30.85
9538;BME280;4807;48.024;11.726;2023-08-21T13:33:28;95427.06;;;33.01;30.46
9538;BME280;4807;48.024;11.726;2023-08-21T13:36:38;95442.09;;;33.21;31.12
9538;BME280;4807;48.024;11.726;2023-08-21T13:39:46;95450.06;;;33.14;29.88
9538;BME280;4807;48.024;11.726;2023-08-21T13:42:54;95442.50;;;32.93;30.47
9538;BME280;4807;48.024;11.726;2023-08-21T13:46:08;95439.66;;;32.81;30.74
9538;BME280;4807;48.024;11.726;2023-08-21T13:49:17;95437.88;;;33.15;30.77
9538;BME280;4807;48.024;11.726;2023-08-21T13:52:25;95434.19;;;33.02;30.38
9538;BME280;4807;48.024;11.726;2023-08-21T13:55:34;95431.88;;;32.66;30.04
9538;BME280;4807;48.024;11.726;2023-08-21T13:58:42;95428.50;;;32.52;30.31
9538;BME280;4807;48.024;11.726;2023-08-21T14:01:50;95427.50;;;32.65;30.75
9538;BME280;4807;48.024;11.726;2023-08-21T14:05:00;95422.22;;;32.98;30.85
9538;BME280;4807;48.024;11.726;2023-08-21T14:08:08;95418.22;;;32.78;31.05
9538;BME280;4807;48.024;11.726;2023-08-21T14:11:16;95417.34;;;32.40;31.01
9538;BME280;4807;48.024;11.726;2023-08-21T14:14:25;95417.19;;;32.36;31.42
9538;BME280;4807;48.024;11.726;2023-08-21T14:17:33;95419.72;;;32.67;31.09
9538;BME280;4807;48.024;11.726;2023-08-21T14:20:43;95422.34;;;33.02;31.80
9538;BME280;4807;48.024;11.726;2023-08-21T14:23:51;95422.81;;;32.57;30.72
9538;BME280;4807;48.024;11.726;2023-08-21T14:27:00;95415.34;;;32.66;31.30
9538;BME280;4807;48.024;11.726;2023-08-21T14:30:09;95413.31;;;32.92;30.24
9538;BME280;4807;48.024;11.726;2023-08-21T14:33:18;95406.56;;;32.81;30.61
9538;BME280;4807;48.024;11.726;2023-08-21T14:36:28;95408.72;;;33.05;30.35
9538;BME280;4807;48.024;11.726;2023-08-21T14:39:36;95421.94;;;33.29;30.33
9538;BME280;4807;48.024;11.726;2023-08-21T14:42:44;95410.28;;;33.15;30.07
9538;BME280;4807;48.024;11.726;2023-08-21T14:45:53;95396.63;;;33.18;30.83
9538;BME280;4807;48.024;11.726;2023-08-21T14:49:01;95401.19;;;33.23;30.86
9538;BME280;4807;48.024;11.726;2023-08-21T14:52:11;95400.06;;;33.15;30.95
9538;BME280;4807;48.024;11.726;2023-08-21T14:55:19;95402.34;;;33.43;31.07
9538;BME280;4807;48.024;11.726;2023-08-21T14:58:27;95394.53;;;33.45;30.75
9538;BME280;4807;48.024;11.726;2023-08-21T15:01:35;95399.25;;;33.44;30.06
9538;BME280;4807;48.024;11.726;2023-08-21T15:04:44;95398.81;;;33.04;31.18
9538;BME280;4807;48.024;11.726;2023-08-21T15:07:54;95399.00;;;32.99;30.79
9538;BME280;4807;48.024;11.726;2023-08-21T15:11:02;95396.88;;;32.58;31.14
9538;BME280;4807;48.024;11.726;2023-08-21T15:14:11;95400.59;;;32.62;31.88
9538;BME280;4807;48.024;11.726;2023-08-21T15:17:20;95391.50;;;32.62;31.24
9538;BME280;4807;48.024;11.726;2023-08-21T15:20:28;95388.59;;;32.67;31.40
9538;BME280;4807;48.024;11.726;2023-08-21T15:23:38;95389.47;;;32.88;31.97
9538;BME280;4807;48.024;11.726;2023-08-21T15:26:46;95383.81;;;32.84;31.63
9538;BME280;4807;48.024;11.726;2023-08-21T15:29:54;95389.25;;;33.02;31.82
9538;BME280;4807;48.024;11.726;2023-08-21T15:33:03;95399.25;;;33.15;31.60
9538;BME280;4807;48.024;11.726;2023-08-21T15:36:12;95384.91;;;32.92;30.75
9538;BME280;4807;48.024;11.726;2023-08-21T15:39:21;95386.00;;;32.62;31.16
9538;BME280;4807;48.024;11.726;2023-08-21T15:42:29;95378.72;;;32.57;31.92
9538;BME280;4807;48.024;11.726;2023-08-21T15:45:39;95379.91;;;32.85;31.77
9538;BME280;4807;48.024;11.726;2023-08-21T15:48:47;95379.03;;;33.02;31.85
9538;BME280;4807;48.024;11.726;2023-08-21T15:51:55;95377.34;;;32.80;31.79
9538;BME280;4807;48.024;11.726;2023-08-21T15:55:06;95367.53;;;32.53;32.62
9538;BME280;4807;48.024;11.726;2023-08-21T15:58:14;95373.22;;;32.57;32.72
9538;BME280;4807;48.024;11.726;2023-08-21T16:01:23;95368.47;;;32.66;32.24
9538;BME280;4807;48.024;11.726;2023-08-21T16:04:31;95369.94;;;32.64;31.69
9538;BME280;4807;48.024;11.726;2023-08-21T16:07:39;95359.06;;;32.67;31.92
9538;BME280;4807;48.024;11.726;2023-08-21T16:10:49;95367.50;;;32.62;32.94
9538;BME280;4807;48.024;11.726;2023-08-21T16:13:58;95360.66;;;32.68;32.85
9538;BME280;4807;48.024;11.726;2023-08-21T16:17:08;95357.91;;;32.68;32.30
9538;BME280;4807;48.024;11.726;2023-08-21T16:20:17;95358.25;;;32.75;32.89
9538;BME280;4807;48.024;11.726;2023-08-21T16:23:26;95350.50;;;32.51;33.64
9538;BME280;4807;48.024;11.726;2023-08-21T16:26:35;95355.84;;;32.56;34.12
9538;BME280;4807;48.024;11.726;2023-08-21T16:29:43;95359.41;;;32.57;34.51
9538;BME280;4807;48.024;11.726;2023-08-21T16:32:54;95356.22;;;32.46;34.36
9538;BME280;4807;48.024;11.726;2023-08-21T16:36:03;95351.22;;;32.40;34.30
9538;BME280;4807;48.024;11.726;2023-08-21T16:39:11;95360.13;;;32.37;34.52
9538;BME280;4807;48.024;11.726;2023-08-21T16:42:21;95354.44;;;32.42;34.58
9538;BME280;4807;48.024;11.726;2023-08-21T16:45:30;95362.72;;;32.42;34.04
9538;BME280;4807;48.024;11.726;2023-08-21T16:48:38;95360.09;;;32.45;33.88
9538;BME280;4807;48.024;11.726;2023-08-21T16:51:46;95370.69;;;32.35;33.44
9538;BME280;4807;48.024;11.726;2023-08-21T16:54:54;95366.44;;;32.37;33.72